Time,TemperatureF,DewpointF,PressureIn,WindDirection,WindDirectionDegrees,WindSpeedMPH,WindSpeedGustMPH,Humidity,HourlyPrecipIn,Conditions,Clouds,dailyrainin,SoftwareType,DateUTC
2013-05-28 00:04:00,76.5,70.0,29.80,South,187,2.0,17.0,81,0.00,,,0.00,weatherlink.com 1.10,2013-05-28 06:04:00,
2013-05-28 00:20:00,76.2,70.0,29.80,SE,142,4.0,10.0,82,0.00,,,0.00,weatherlink.com 1.10,2013-05-28 06:20:00,
2013-05-28 00:35:00,76.0,70.0,29.79,ESE,116,5.0,12.0,82,0.00,,,0.00,weatherlink.com 1.10,2013-05-28 06:35:00,
2013-05-28 00:52:00,75.6,70.0,29.78,ESE,108,7.0,11.0,83,0.00,,,0.00,weatherlink.com 1.10,2013-05-28 06:52:00,
2013-05-28 01:05:00,75.4,70.0,29.77,ESE,111,6.0,14.0,83,0.00,,,0.00,weatherlink.com 1.10,2013-05-28 07:05:00,
2013-05-28 01:20:00,75.1,70.0,29.77,SSW,199,1.0,9.0,83,0.00,,,0.00,weatherlink.com 1.10,2013-05-28 07:20:00,
2013-05-28 01:35:00,74.6,70.0,29.77,SE,131,5.0,12.0,84,0.00,,,0.00,weatherlink.com 1.10,2013-05-28 07:35:00,
2013-05-28 01:50:00,74.3,70.0,29.77,SE,127,5.0,11.0,85,0.00,,,0.00,weatherlink.com 1.10,2013-05-28 07:50:00,
2013-05-28 02:05:00,74.0,69.0,29.76,ESE,123,12.0,13.0,85,0.00,,,0.00,weatherlink.com 1.10,2013-05-28 08:05:00,
2013-05-28 02:20:00,73.8,69.0,29.76,East,101,6.0,13.0,85,0.00,,,0.00,weatherlink.com 1.10,2013-05-28 08:20:00,
2013-05-28 02:35:00,73.5,69.0,29.76,ESE,115,4.0,17.0,85,0.00,,,0.00,weatherlink.com 1.10,2013-05-28 08:35:00,
2013-05-28 02:50:00,73.1,69.0,29.77,ENE,70,8.0,9.0,86,0.00,,,0.00,weatherlink.com 1.10,2013-05-28 08:50:00,
2013-05-28 03:05:00,72.8,68.0,29.76,ESE,119,1.0,9.0,86,0.00,,,0.00,weatherlink.com 1.10,2013-05-28 09:05:00,
2013-05-28 03:20:00,72.5,68.0,29.77,ESE,114,8.0,8.0,86,0.00,,,0.00,weatherlink.com 1.10,2013-05-28 09:20:00,
2013-05-28 03:35:00,72.3,68.0,29.77,SSE,150,1.0,8.0,86,0.00,,,0.00,weatherlink.com 1.10,2013-05-28 09:35:00,
2013-05-28 03:50:00,72.2,68.0,29.78,SE,134,2.0,9.0,85,0.00,,,0.00,weatherlink.com 1.10,2013-05-28 09:50:00,
2013-05-28 04:05:00,72.1,68.0,29.78,ESE,114,1.0,11.0,86,0.00,,,0.00,weatherlink.com 1.10,2013-05-28 10:05:00,
2013-05-28 04:20:00,72.1,67.0,29.79,SSE,149,0.0,7.0,85,0.00,,,0.00,weatherlink.com 1.10,2013-05-28 10:20:00,
2013-05-28 04:35:00,72.0,68.0,29.80,SE,132,3.0,6.0,86,0.00,,,0.00,weatherlink.com 1.10,2013-05-28 10:35:00,
2013-05-28 04:50:00,72.1,67.0,29.80,SE,136,2.0,11.0,85,0.00,,,0.00,weatherlink.com 1.10,2013-05-28 10:50:00,
2013-05-28 05:05:00,72.1,68.0,29.80,SSW,194,2.0,10.0,86,0.00,,,0.00,weatherlink.com 1.10,2013-05-28 11:05:00,
2013-05-28 05:20:00,72.0,68.0,29.80,SE,139,4.0,10.0,86,0.00,,,0.00,weatherlink.com 1.10,2013-05-28 11:20:00,
2013-05-28 05:35:00,71.9,68.0,29.81,ESE,118,4.0,8.0,86,0.00,,,0.00,weatherlink.com 1.10,2013-05-28 11:35:00,
2013-05-28 05:51:00,71.5,68.0,29.81,SE,140,4.0,8.0,87,0.00,,,0.00,weatherlink.com 1.10,2013-05-28 11:51:00,
2013-05-28 06:06:00,71.6,68.0,29.82,East,98,5.0,9.0,87,0.00,,,0.00,weatherlink.com 1.10,2013-05-28 12:06:00,
2013-05-28 06:21:00,72.0,68.0,29.81,SSE,156,2.0,8.0,87,0.00,,,0.00,weatherlink.com 1.10,2013-05-28 12:21:00,
2013-05-28 06:36:00,73.1,69.0,29.82,ESE,105,3.0,12.0,86,0.00,,,0.00,weatherlink.com 1.10,2013-05-28 12:36:00,
2013-05-28 06:51:00,73.5,69.0,29.82,SSE,149,4.0,8.0,85,0.00,,,0.00,weatherlink.com 1.10,2013-05-28 12:51:00,
2013-05-28 07:06:00,73.9,69.0,29.82,SE,135,5.0,11.0,84,0.00,,,0.00,weatherlink.com 1.10,2013-05-28 13:06:00,
2013-05-28 07:21:00,75.5,70.0,29.82,SE,125,2.0,9.0,83,0.00,,,0.00,weatherlink.com 1.10,2013-05-28 13:21:00,
2013-05-28 07:36:00,75.5,70.0,29.83,ESE,122,3.0,8.0,82,0.00,,,0.00,weatherlink.com 1.10,2013-05-28 13:36:00,
2013-05-28 07:51:00,75.7,70.0,29.83,SE,124,9.0,14.0,81,0.00,,,0.00,weatherlink.com 1.10,2013-05-28 13:51:00,
2013-05-28 08:06:00,76.1,70.0,29.83,SE,142,1.0,9.0,80,0.00,,,0.00,weatherlink.com 1.10,2013-05-28 14:06:00,
2013-05-28 08:21:00,76.8,69.0,29.84,South,180,3.0,9.0,77,0.00,,,0.00,weatherlink.com 1.10,2013-05-28 14:21:00,
2013-05-28 08:36:00,77.7,70.0,29.83,SE,144,3.0,9.0,77,0.00,,,0.00,weatherlink.com 1.10,2013-05-28 14:36:00,
2013-05-28 08:51:00,77.6,70.0,29.84,SE,131,2.0,11.0,76,0.00,,,0.00,weatherlink.com 1.10,2013-05-28 14:51:00,
2013-05-28 09:06:00,78.7,70.0,29.83,SSW,195,3.0,11.0,75,0.00,,,0.00,weatherlink.com 1.10,2013-05-28 15:06:00,
2013-05-28 09:21:00,79.4,70.0,29.83,ENE,76,4.0,12.0,73,0.00,,,0.00,weatherlink.com 1.10,2013-05-28 15:21:00,
2013-05-28 09:36:00,80.1,70.0,29.84,East,91,2.0,10.0,71,0.00,,,0.00,weatherlink.com 1.10,2013-05-28 15:36:00,
2013-05-28 09:51:00,80.5,71.0,29.84,ESE,123,2.0,9.0,72,0.00,,,0.00,weatherlink.com 1.10,2013-05-28 15:51:00,
2013-05-28 10:06:00,81.0,70.0,29.84,SSE,152,3.0,10.0,70,0.00,,,0.00,weatherlink.com 1.10,2013-05-28 16:06:00,
2013-05-28 10:21:00,81.6,70.0,29.83,ESE,114,12.0,12.0,68,0.00,,,0.00,weatherlink.com 1.10,2013-05-28 16:21:00,
2013-05-28 10:36:00,81.4,70.0,29.84,SSE,150,4.0,13.0,68,0.00,,,0.00,weatherlink.com 1.10,2013-05-28 16:36:00,
2013-05-28 10:51:00,83.2,70.0,29.83,SE,139,2.0,15.0,65,0.00,,,0.00,weatherlink.com 1.10,2013-05-28 16:51:00,
2013-05-28 11:06:00,83.3,69.0,29.84,East,81,6.0,19.0,62,0.00,,,0.00,weatherlink.com 1.10,2013-05-28 17:06:00,
2013-05-28 11:21:00,83.3,69.0,29.84,ESE,106,3.0,9.0,62,0.00,,,0.00,weatherlink.com 1.10,2013-05-28 17:21:00,
2013-05-28 11:36:00,84.3,69.0,29.83,SSE,157,4.0,10.0,60,0.00,,,0.00,weatherlink.com 1.10,2013-05-28 17:36:00,
2013-05-28 11:52:00,84.4,69.0,29.83,SSW,211,3.0,16.0,60,0.00,,,0.00,weatherlink.com 1.10,2013-05-28 17:52:00,
2013-05-28 12:07:00,84.5,69.0,29.82,SE,139,7.0,9.0,60,0.00,,,0.00,weatherlink.com 1.10,2013-05-28 18:07:00,
2013-05-28 12:22:00,84.6,69.0,29.82,ESE,119,3.0,12.0,60,0.00,,,0.00,weatherlink.com 1.10,2013-05-28 18:22:00,
2013-05-28 12:37:00,84.2,68.0,29.82,SE,143,6.0,14.0,59,0.00,,,0.00,weatherlink.com 1.10,2013-05-28 18:37:00,
2013-05-28 12:51:00,84.5,69.0,29.82,SSW,198,7.0,13.0,59,0.00,,,0.00,weatherlink.com 1.10,2013-05-28 18:51:00,
2013-05-28 13:06:00,84.0,69.0,29.81,SE,127,5.0,11.0,60,0.00,,,0.00,weatherlink.com 1.10,2013-05-28 19:06:00,
2013-05-28 13:21:00,85.8,71.0,29.81,ESE,109,3.0,12.0,61,0.00,,,0.00,weatherlink.com 1.10,2013-05-28 19:21:00,
2013-05-28 13:36:00,86.2,68.0,29.80,ESE,121,8.0,16.0,54,0.00,,,0.00,weatherlink.com 1.10,2013-05-28 19:36:00,
2013-05-28 13:51:00,85.5,68.0,29.80,ESE,115,7.0,10.0,56,0.00,,,0.00,weatherlink.com 1.10,2013-05-28 19:51:00,
2013-05-28 14:06:00,85.1,69.0,29.80,ESE,108,6.0,17.0,58,0.00,,,0.00,weatherlink.com 1.10,2013-05-28 20:06:00,
2013-05-28 14:21:00,87.2,69.0,29.80,ESE,119,2.0,13.0,54,0.00,,,0.00,weatherlink.com 1.10,2013-05-28 20:21:00,
2013-05-28 14:36:00,86.6,69.0,29.79,SSW,210,4.0,14.0,55,0.00,,,0.00,weatherlink.com 1.10,2013-05-28 20:36:00,
2013-05-28 14:51:00,86.4,67.0,29.78,ESE,105,5.0,19.0,53,0.00,,,0.00,weatherlink.com 1.10,2013-05-28 20:51:00,
2013-05-28 15:06:00,86.1,69.0,29.77,SE,124,3.0,16.0,56,0.00,,,0.00,weatherlink.com 1.10,2013-05-28 21:06:00,
2013-05-28 15:21:00,86.7,68.0,29.76,ESE,117,9.0,12.0,54,0.00,,,0.00,weatherlink.com 1.10,2013-05-28 21:21:00,
2013-05-28 15:36:00,85.3,68.0,29.76,South,176,2.0,12.0,56,0.00,,,0.00,weatherlink.com 1.10,2013-05-28 21:36:00,
2013-05-28 15:51:00,85.5,68.0,29.76,ESE,108,2.0,9.0,56,0.00,,,0.00,weatherlink.com 1.10,2013-05-28 21:51:00,
2013-05-28 16:06:00,85.4,69.0,29.75,ESE,102,2.0,7.0,58,0.00,,,0.00,weatherlink.com 1.10,2013-05-28 22:06:00,
2013-05-28 16:21:00,86.4,69.0,29.75,ESE,113,4.0,7.0,57,0.00,,,0.00,weatherlink.com 1.10,2013-05-28 22:21:00,
2013-05-28 16:36:00,85.5,68.0,29.74,East,93,4.0,12.0,56,0.00,,,0.00,weatherlink.com 1.10,2013-05-28 22:36:00,
2013-05-28 16:51:00,84.4,68.0,29.75,ESE,113,5.0,11.0,59,0.00,,,0.00,weatherlink.com 1.10,2013-05-28 22:51:00,
2013-05-28 17:06:00,84.6,69.0,29.75,ESE,102,3.0,8.0,59,0.00,,,0.00,weatherlink.com 1.10,2013-05-28 23:06:00,
2013-05-28 17:21:00,83.9,68.0,29.75,SE,143,1.0,9.0,59,0.00,,,0.00,weatherlink.com 1.10,2013-05-28 23:21:00,
2013-05-28 17:36:00,83.2,68.0,29.75,SSE,152,1.0,9.0,61,0.00,,,0.00,weatherlink.com 1.10,2013-05-28 23:36:00,
2013-05-28 17:51:00,82.8,68.0,29.74,ESE,108,4.0,8.0,62,0.00,,,0.00,weatherlink.com 1.10,2013-05-28 23:51:00,
2013-05-28 18:06:00,82.8,69.0,29.72,ENE,74,6.0,12.0,64,0.00,,,0.00,weatherlink.com 1.10,2013-05-29 00:06:00,
2013-05-28 18:21:00,82.8,69.0,29.71,ESE,102,6.0,15.0,64,0.00,,,0.00,weatherlink.com 1.10,2013-05-29 00:21:00,
2013-05-28 18:37:00,82.1,69.0,29.72,ESE,109,2.0,11.0,64,0.00,,,0.00,weatherlink.com 1.10,2013-05-29 00:37:00,
2013-05-28 18:52:00,81.7,68.0,29.72,East,84,3.0,14.0,64,0.00,,,0.00,weatherlink.com 1.10,2013-05-29 00:52:00,
2013-05-28 19:07:00,81.3,68.0,29.73,SE,126,5.0,9.0,65,0.00,,,0.00,weatherlink.com 1.10,2013-05-29 01:07:00,
2013-05-28 19:22:00,80.8,68.0,29.73,SE,137,3.0,10.0,66,0.00,,,0.00,weatherlink.com 1.10,2013-05-29 01:22:00,
2013-05-28 19:37:00,80.5,68.0,29.73,East,101,3.0,10.0,66,0.00,,,0.00,weatherlink.com 1.10,2013-05-29 01:37:00,
2013-05-28 19:52:00,80.1,68.0,29.74,ESE,119,5.0,9.0,67,0.00,,,0.00,weatherlink.com 1.10,2013-05-29 01:52:00,
2013-05-28 20:07:00,79.6,68.0,29.74,East,101,5.0,7.0,67,0.00,,,0.00,weatherlink.com 1.10,2013-05-29 02:07:00,
2013-05-28 20:22:00,79.1,68.0,29.75,SE,140,2.0,7.0,68,0.00,,,0.00,weatherlink.com 1.10,2013-05-29 02:22:00,
2013-05-28 20:37:00,78.9,68.0,29.75,ESE,117,5.0,7.0,69,0.00,,,0.00,weatherlink.com 1.10,2013-05-29 02:37:00,
2013-05-28 20:52:00,78.5,68.0,29.75,ESE,115,1.0,9.0,69,0.00,,,0.00,weatherlink.com 1.10,2013-05-29 02:52:00,
2013-05-28 21:07:00,78.2,68.0,29.76,SSW,201,1.0,8.0,70,0.00,,,0.00,weatherlink.com 1.10,2013-05-29 03:07:00,
2013-05-28 21:22:00,78.2,68.0,29.76,SE,125,1.0,7.0,70,0.00,,,0.00,weatherlink.com 1.10,2013-05-29 03:22:00,
2013-05-28 21:37:00,78.2,68.0,29.77,SSE,152,5.0,11.0,70,0.00,,,0.00,weatherlink.com 1.10,2013-05-29 03:37:00,
2013-05-28 21:52:00,78.0,68.0,29.76,East,97,6.0,13.0,71,0.00,,,0.00,weatherlink.com 1.10,2013-05-29 03:52:00,
2013-05-28 22:07:00,77.8,68.0,29.76,ESE,108,5.0,10.0,72,0.00,,,0.00,weatherlink.com 1.10,2013-05-29 04:07:00,
2013-05-28 22:22:00,77.6,68.0,29.76,ESE,122,5.0,12.0,73,0.00,,,0.00,weatherlink.com 1.10,2013-05-29 04:22:00,
2013-05-28 22:37:00,77.5,69.0,29.75,ESE,116,3.0,13.0,74,0.00,,,0.00,weatherlink.com 1.10,2013-05-29 04:37:00,
2013-05-28 22:52:00,77.3,69.0,29.75,ESE,115,9.0,17.0,75,0.00,,,0.00,weatherlink.com 1.10,2013-05-29 04:52:00,
2013-05-28 23:07:00,77.1,69.0,29.75,SE,127,5.0,12.0,76,0.00,,,0.00,weatherlink.com 1.10,2013-05-29 05:07:00,
2013-05-28 23:22:00,76.8,69.0,29.74,SE,126,9.0,16.0,77,0.00,,,0.00,weatherlink.com 1.10,2013-05-29 05:22:00,
2013-05-28 23:37:00,76.3,69.0,29.74,SE,124,9.0,16.0,79,0.00,,,0.00,weatherlink.com 1.10,2013-05-29 05:37:00,
2013-05-28 23:52:00,76.1,70.0,29.74,ESE,115,7.0,17.0,80,0.00,,,0.00,weatherlink.com 1.10,2013-05-29 05:52:00,